createdAt,value
2017-04-23T00:00:42.279Z,89.60
2017-04-23T00:01:40.775Z,89.60
2017-04-23T00:02:39.247Z,89.40
2017-04-23T00:03:37.689Z,89.40
2017-04-23T00:04:36.162Z,89.20
2017-04-23T00:05:35.041Z,88.70
2017-04-23T00:06:33.495Z,88.70
2017-04-23T00:07:31.863Z,89.30
2017-04-23T00:08:30.254Z,89.40
2017-04-23T00:09:29.421Z,90.00
2017-04-23T00:10:27.822Z,89.40
2017-04-23T00:11:27.044Z,89.00
2017-04-23T00:12:25.847Z,88.90
2017-04-23T00:13:25.063Z,89.30
2017-04-23T00:14:23.474Z,89.90
2017-04-23T00:15:21.985Z,90.20
2017-04-23T00:16:20.787Z,90.50
2017-04-23T00:17:19.961Z,90.60
2017-04-23T00:18:19.150Z,90.40
2017-04-23T00:19:17.575Z,90.70
2017-04-23T00:20:15.966Z,90.70
2017-04-23T00:21:15.557Z,90.70
2017-04-23T00:22:14.755Z,90.70
2017-04-23T00:23:13.499Z,90.80
2017-04-23T00:24:11.913Z,90.90
2017-04-23T00:25:10.312Z,90.90
2017-04-23T00:26:09.764Z,90.60
2017-04-23T00:27:08.204Z,90.70
2017-04-23T00:28:06.652Z,90.80
2017-04-23T00:29:05.041Z,90.80
2017-04-23T00:30:03.488Z,90.80
2017-04-23T00:31:03.012Z,90.80
2017-04-23T00:32:01.421Z,90.90
2017-04-23T00:32:59.822Z,91.00
2017-04-23T00:33:58.956Z,91.10
2017-04-23T00:34:57.521Z,91.20
2017-04-23T00:35:56.007Z,91.20
2017-04-23T00:36:54.464Z,91.30
2017-04-23T00:37:52.865Z,91.40
2017-04-23T00:38:51.240Z,91.40
2017-04-23T00:39:49.740Z,91.30
2017-04-23T00:40:48.143Z,91.20
2017-04-23T00:41:46.693Z,91.20
2017-04-23T00:42:45.095Z,91.30
2017-04-23T00:43:43.497Z,91.20
2017-04-23T00:44:42.641Z,91.10
2017-04-23T00:45:41.191Z,91.10
2017-04-23T00:46:39.676Z,91.00
2017-04-23T00:47:38.116Z,90.90
2017-04-23T00:48:37.211Z,90.70
2017-04-23T00:49:35.615Z,90.50
2017-04-23T00:50:34.098Z,90.20
2017-04-23T00:51:32.513Z,90.20
2017-04-23T00:52:31.668Z,90.50
2017-04-23T00:53:30.059Z,90.40
2017-04-23T00:54:29.159Z,90.60
2017-04-23T00:55:27.603Z,91.10
2017-04-23T00:56:26.771Z,91.40
2017-04-23T00:57:25.143Z,91.20
2017-04-23T00:58:23.535Z,91.30
2017-04-23T00:59:22.680Z,91.30
2017-04-23T01:00:21.211Z,91.30
2017-04-23T01:01:19.733Z,91.30
2017-04-23T01:02:18.223Z,91.20
2017-04-23T01:03:16.616Z,91.10
2017-04-23T01:04:14.986Z,91.10
2017-04-23T01:05:13.576Z,91.10
2017-04-23T01:06:12.009Z,91.10
2017-04-23T01:07:11.149Z,90.90
2017-04-23T01:08:09.585Z,90.80
2017-04-23T01:09:08.069Z,90.80
2017-04-23T01:10:06.571Z,90.70
2017-04-23T01:11:05.052Z,90.60
2017-04-23T01:12:03.581Z,90.80
2017-04-23T01:13:02.069Z,90.70
2017-04-23T01:14:00.445Z,90.50
2017-04-23T01:14:58.862Z,90.30
2017-04-23T01:15:58.063Z,90.40
2017-04-23T01:16:57.214Z,90.60
2017-04-23T01:17:55.652Z,90.70
2017-04-23T01:18:54.167Z,90.80
2017-04-23T01:19:52.575Z,90.90
2017-04-23T01:20:51.036Z,91.00
2017-04-23T01:21:49.419Z,91.40
2017-04-23T01:22:48.186Z,91.20
2017-04-23T01:23:46.688Z,91.20
2017-04-23T01:24:47.912Z,91.20
2017-04-23T01:25:46.328Z,91.10
2017-04-23T01:26:45.423Z,90.90
2017-04-23T01:27:44.621Z,91.50
2017-04-23T01:28:43.059Z,91.00
2017-04-23T01:29:41.495Z,90.90
2017-04-23T01:30:39.890Z,91.00
2017-04-23T01:31:38.319Z,91.00
2017-04-23T01:32:36.762Z,91.00
2017-04-23T01:33:35.921Z,91.30
2017-04-23T01:34:34.338Z,91.00
2017-04-23T01:35:32.837Z,91.00
2017-04-23T01:36:31.390Z,91.00
2017-04-23T01:37:30.214Z,91.00
2017-04-23T01:38:28.627Z,90.80
2017-04-23T01:39:27.085Z,90.80
2017-04-23T01:40:26.378Z,90.50
2017-04-23T01:41:25.508Z,90.10
2017-04-23T01:42:23.916Z,90.20
2017-04-23T01:43:22.311Z,90.40
2017-04-23T01:44:20.741Z,90.70
2017-04-23T01:45:19.170Z,90.90
2017-04-23T01:46:17.574Z,91.00
2017-04-23T01:47:16.006Z,91.10
2017-04-23T01:48:14.468Z,91.30
2017-04-23T01:49:12.832Z,91.80
2017-04-23T01:50:11.273Z,91.40
2017-04-23T01:51:10.034Z,91.30
2017-04-23T01:52:08.416Z,91.40
2017-04-23T01:53:06.883Z,91.60
2017-04-23T01:54:05.294Z,91.60
2017-04-23T01:55:03.714Z,91.80
2017-04-23T01:56:02.131Z,91.40
2017-04-23T01:57:00.592Z,91.40
2017-04-23T01:57:58.990Z,91.30
2017-04-23T01:58:57.376Z,91.20
2017-04-23T01:59:55.767Z,91.10
2017-04-23T02:00:54.194Z,90.90
2017-04-23T02:01:52.671Z,90.90
2017-04-23T02:02:51.157Z,90.80
2017-04-23T02:03:49.631Z,90.70
2017-04-23T02:04:48.803Z,90.60
2017-04-23T02:05:47.221Z,90.40
2017-04-23T02:06:46.379Z,90.40
2017-04-23T02:07:44.780Z,90.70
2017-04-23T02:08:43.910Z,90.70
2017-04-23T02:09:42.393Z,90.70
2017-04-23T02:10:40.797Z,90.40
2017-04-23T02:11:39.147Z,90.30
2017-04-23T02:12:37.630Z,90.50
2017-04-23T02:13:36.066Z,90.80
2017-04-23T02:14:34.537Z,91.00
2017-04-23T02:15:32.925Z,91.10
2017-04-23T02:16:31.352Z,91.10
2017-04-23T02:17:29.860Z,90.90
2017-04-23T02:18:29.045Z,90.90
2017-04-23T02:19:27.411Z,90.50
2017-04-23T02:20:25.890Z,90.40
2017-04-23T02:21:24.274Z,90.60
2017-04-23T02:22:22.677Z,90.60
2017-04-23T02:23:21.085Z,90.70
2017-04-23T02:24:19.500Z,90.70
2017-04-23T02:25:18.686Z,90.70
2017-04-23T02:26:17.902Z,90.50
2017-04-23T02:27:16.315Z,90.20
2017-04-23T02:28:15.749Z,89.70
2017-04-23T02:29:14.915Z,90.00
2017-04-23T02:30:14.083Z,90.30
2017-04-23T02:31:12.472Z,90.50
2017-04-23T02:32:10.902Z,90.70
2017-04-23T02:33:10.062Z,90.80
2017-04-23T02:34:08.481Z,90.90
2017-04-23T02:35:06.935Z,91.00
2017-04-23T02:36:05.315Z,90.90
2017-04-23T02:37:03.744Z,91.00
2017-04-23T02:38:02.154Z,91.00
2017-04-23T02:39:00.574Z,91.10
2017-04-23T02:39:59.075Z,90.80
2017-04-23T02:40:57.500Z,90.70
2017-04-23T02:41:56.672Z,90.80
2017-04-23T02:42:55.071Z,90.80
2017-04-23T02:43:53.473Z,90.90
2017-04-23T02:44:52.616Z,91.00
2017-04-23T02:45:51.772Z,90.90
2017-04-23T02:46:50.191Z,90.80
2017-04-23T02:47:48.775Z,90.80
2017-04-23T02:48:47.175Z,90.90
2017-04-23T02:49:45.593Z,90.90
2017-04-23T02:50:43.753Z,90.90
2017-04-23T02:51:42.177Z,91.10
2017-04-23T02:52:40.613Z,91.10
2017-04-23T02:53:39.080Z,90.90
2017-04-23T02:54:37.481Z,90.80
2017-04-23T02:55:35.904Z,90.90
2017-04-23T02:56:34.393Z,90.60
2017-04-23T02:57:32.852Z,90.70
2017-04-23T02:58:31.294Z,90.70
2017-04-23T02:59:30.954Z,90.90
2017-04-23T03:00:29.370Z,90.50
2017-04-23T03:01:28.549Z,90.50
2017-04-23T03:02:27.689Z,90.60
2017-04-23T03:03:26.073Z,90.50
2017-04-23T03:04:24.507Z,90.40
2017-04-23T03:05:22.984Z,90.20
2017-04-23T03:06:21.388Z,90.20
2017-04-23T03:08:18.646Z,89.60
2017-04-23T03:09:33.178Z,90.00
2017-04-23T03:10:31.675Z,90.30
2017-04-23T03:11:30.049Z,90.40
2017-04-23T03:12:29.193Z,91.10
2017-04-23T03:13:27.577Z,91.00
2017-04-23T03:14:25.994Z,91.20
2017-04-23T03:15:24.378Z,91.40
2017-04-23T03:16:22.847Z,91.70
2017-04-23T03:17:21.231Z,91.70
2017-04-23T03:18:19.637Z,91.60
2017-04-23T03:19:18.065Z,91.50
2017-04-23T03:20:16.455Z,91.50
2017-04-23T03:21:14.865Z,91.50
2017-04-23T03:22:14.063Z,91.50
2017-04-23T03:23:12.466Z,91.40
2017-04-23T03:24:10.950Z,91.40
2017-04-23T03:25:09.488Z,91.30
2017-04-23T03:26:07.862Z,91.40
2017-04-23T03:27:06.267Z,91.20
2017-04-23T03:28:05.027Z,91.10
2017-04-23T03:29:03.444Z,91.00
2017-04-23T03:30:02.628Z,90.80
2017-04-23T03:31:01.012Z,91.00
2017-04-23T03:32:00.163Z,91.20
2017-04-23T03:32:58.629Z,91.10
2017-04-23T03:33:57.001Z,91.10
2017-04-23T03:34:55.443Z,90.90
2017-04-23T03:35:53.853Z,91.00
2017-04-23T03:36:52.250Z,91.10
2017-04-23T03:37:50.676Z,91.20
2017-04-23T03:38:49.862Z,91.20
2017-04-23T03:39:48.287Z,91.10
2017-04-23T03:40:46.982Z,91.10
2017-04-23T03:41:45.414Z,91.00
2017-04-23T03:42:44.548Z,91.00
2017-04-23T03:43:42.950Z,91.00
2017-04-23T03:44:41.404Z,90.80
2017-04-23T03:45:39.807Z,90.80
2017-04-23T03:46:38.939Z,90.90
2017-04-23T03:47:37.428Z,91.00
2017-04-23T03:48:35.835Z,90.90
2017-04-23T03:49:35.007Z,91.00
2017-04-23T03:50:34.159Z,91.10
2017-04-23T03:51:32.567Z,91.20
2017-04-23T03:52:31.005Z,91.40
2017-04-23T03:53:29.771Z,91.50
2017-04-23T03:54:28.174Z,91.40
2017-04-23T03:55:26.666Z,91.50
2017-04-23T03:56:25.829Z,91.50
2017-04-23T03:57:24.243Z,91.40
2017-04-23T03:58:22.715Z,91.60
2017-04-23T03:59:21.161Z,91.50
2017-04-23T04:00:20.310Z,91.60
2017-04-23T04:01:18.776Z,91.60
2017-04-23T04:02:17.199Z,91.60
2017-04-23T04:03:16.342Z,91.60
2017-04-23T04:04:14.784Z,91.70
2017-04-23T04:05:13.170Z,91.60
2017-04-23T04:06:11.594Z,91.90
2017-04-23T04:07:10.349Z,91.80
2017-04-23T04:08:09.492Z,91.80
2017-04-23T04:09:07.936Z,91.70
2017-04-23T04:10:06.382Z,91.70
2017-04-23T04:11:05.536Z,92.00
2017-04-23T04:12:03.941Z,91.50
2017-04-23T04:13:02.403Z,91.50
2017-04-23T04:14:00.790Z,91.50
2017-04-23T04:14:59.172Z,91.50
2017-04-23T04:15:57.623Z,91.60
2017-04-23T04:16:59.742Z,91.60
2017-04-23T04:17:58.128Z,91.70
2017-04-23T04:18:56.567Z,91.80
2017-04-23T04:19:55.032Z,91.80
2017-04-23T04:20:53.439Z,91.80
2017-04-23T04:21:51.844Z,91.80
2017-04-23T04:22:50.280Z,91.80
2017-04-23T04:23:48.729Z,91.70
2017-04-23T04:24:47.242Z,91.70
2017-04-23T04:25:45.680Z,91.60
2017-04-23T04:26:44.091Z,91.70
2017-04-23T04:27:42.627Z,91.60
2017-04-23T04:28:41.070Z,91.50
2017-04-23T04:29:39.450Z,91.50
2017-04-23T04:30:37.879Z,91.40
2017-04-23T04:31:36.695Z,91.40
2017-04-23T04:32:35.069Z,91.40
2017-04-23T04:33:33.431Z,91.50
2017-04-23T04:34:31.893Z,91.40
2017-04-23T04:35:30.302Z,91.30
2017-04-23T04:36:28.800Z,91.40
2017-04-23T04:37:27.203Z,91.60
2017-04-23T04:38:25.996Z,91.60
2017-04-23T04:39:24.389Z,91.50
2017-04-23T04:40:22.802Z,91.50
2017-04-23T04:41:21.222Z,91.60
2017-04-23T04:42:19.651Z,91.50
2017-04-23T04:43:23.091Z,91.50
2017-04-23T04:44:22.206Z,91.50
2017-04-23T04:45:20.584Z,91.60
2017-04-23T04:46:19.014Z,91.70
2017-04-23T04:47:18.186Z,91.80
2017-04-23T04:48:16.586Z,91.80
2017-04-23T04:49:15.723Z,91.80
2017-04-23T04:50:14.115Z,91.80
2017-04-23T04:51:12.529Z,91.80
2017-04-23T04:52:10.927Z,91.70
2017-04-23T04:53:09.407Z,91.70
2017-04-23T04:54:07.784Z,91.60
2017-04-23T04:55:06.526Z,91.60
2017-04-23T04:56:04.977Z,91.60
2017-04-23T04:57:03.376Z,91.50
2017-04-23T04:58:01.770Z,91.40
2017-04-23T04:59:00.210Z,91.40
2017-04-23T04:59:58.611Z,91.50
2017-04-23T05:00:57.202Z,91.40
2017-04-23T05:01:56.337Z,91.50
2017-04-23T05:02:54.723Z,91.50
2017-04-23T05:03:53.173Z,91.60
2017-04-23T05:04:51.572Z,91.60
2017-04-23T05:05:49.977Z,91.50
2017-04-23T05:06:48.349Z,91.50
2017-04-23T05:07:46.803Z,91.50
2017-04-23T05:08:45.946Z,91.90
2017-04-23T05:09:44.386Z,91.40
2017-04-23T05:10:42.755Z,91.40
2017-04-23T05:11:41.195Z,91.60
2017-04-23T05:12:39.596Z,91.40
2017-04-23T05:13:38.376Z,91.30
2017-04-23T05:14:36.866Z,91.20
2017-04-23T05:15:35.303Z,91.20
2017-04-23T05:16:34.450Z,91.30
2017-04-23T05:17:32.862Z,91.30
2017-04-23T05:18:31.655Z,91.30
2017-04-23T05:19:30.552Z,91.30
2017-04-23T05:20:28.961Z,91.30
2017-04-23T05:21:27.359Z,91.30
2017-04-23T05:22:25.751Z,91.30
2017-04-23T05:23:24.154Z,91.30
2017-04-23T05:24:22.560Z,91.40
2017-04-23T05:25:21.730Z,91.40
2017-04-23T05:26:20.864Z,91.80
2017-04-23T05:27:19.270Z,91.40
2017-04-23T05:28:18.497Z,91.40
2017-04-23T05:29:16.880Z,91.30
2017-04-23T05:30:15.260Z,91.30
2017-04-23T05:31:13.695Z,91.30
2017-04-23T05:32:12.843Z,91.20
2017-04-23T05:33:11.265Z,91.20
2017-04-23T05:34:09.642Z,91.30
2017-04-23T05:35:08.012Z,91.30
2017-04-23T05:36:06.451Z,91.30
2017-04-23T05:37:05.979Z,91.30
2017-04-23T05:38:04.414Z,91.30
2017-04-23T05:39:04.077Z,91.80
2017-04-23T05:40:02.591Z,91.20
2017-04-23T05:41:01.747Z,90.90
2017-04-23T05:42:00.127Z,90.70
2017-04-23T05:42:58.576Z,90.20
2017-04-23T05:43:57.075Z,89.30
2017-04-23T05:44:55.517Z,89.10
2017-04-23T05:45:53.909Z,87.80
2017-04-23T05:46:52.507Z,86.40
2017-04-23T05:47:51.686Z,85.80
2017-04-23T05:48:50.834Z,86.40
2017-04-23T05:49:49.255Z,86.40
2017-04-23T05:50:47.846Z,87.10
2017-04-23T05:51:46.292Z,86.40
2017-04-23T05:52:44.837Z,85.80
2017-04-23T05:53:43.272Z,85.60
2017-04-23T05:54:41.745Z,86.00
2017-04-23T05:55:40.128Z,86.30
2017-04-23T05:56:38.597Z,85.90
2017-04-23T05:57:37.059Z,86.10
2017-04-23T05:58:35.523Z,86.00
2017-04-23T05:59:34.200Z,85.60
2017-04-23T06:00:32.945Z,85.20
2017-04-23T06:01:31.463Z,86.30
2017-04-23T06:02:29.888Z,84.70
2017-04-23T06:03:28.465Z,84.50
2017-04-23T06:04:27.062Z,84.40
2017-04-23T06:05:25.502Z,84.20
2017-04-23T06:06:24.133Z,83.10
2017-04-23T06:07:23.198Z,83.60
2017-04-23T06:08:21.755Z,83.40
2017-04-23T06:09:20.202Z,82.60
2017-04-23T06:10:18.564Z,80.80
2017-04-23T06:11:17.730Z,81.00
2017-04-23T06:12:16.178Z,81.10
2017-04-23T06:13:21.274Z,80.50
2017-04-23T06:14:19.766Z,81.10
2017-04-23T06:15:18.300Z,81.40
2017-04-23T06:16:16.707Z,81.10
2017-04-23T06:17:15.182Z,81.10
2017-04-23T06:18:13.597Z,81.70
2017-04-23T06:19:12.812Z,82.10
2017-04-23T06:20:11.252Z,81.40
2017-04-23T06:21:10.506Z,80.90
2017-04-23T06:22:12.969Z,80.10
2017-04-23T06:23:11.739Z,80.30
2017-04-23T06:24:10.902Z,80.10
2017-04-23T06:25:09.294Z,79.90
2017-04-23T06:26:07.749Z,80.40
2017-04-23T06:27:06.235Z,80.90
2017-04-23T06:28:04.662Z,81.10
2017-04-23T06:29:03.097Z,81.10
2017-04-23T06:30:01.557Z,80.80
2017-04-23T06:30:59.996Z,80.30
2017-04-23T06:31:59.089Z,80.00
2017-04-23T06:32:57.572Z,80.30
2017-04-23T06:33:56.777Z,80.60
2017-04-23T06:34:55.222Z,80.40
2017-04-23T06:35:53.721Z,80.30
2017-04-23T06:36:52.128Z,80.10
2017-04-23T06:37:51.303Z,79.40
2017-04-23T06:38:50.455Z,79.60
2017-04-23T06:39:49.538Z,79.80
2017-04-23T06:40:48.046Z,79.50
2017-04-23T06:41:47.242Z,79.40
2017-04-23T06:42:45.665Z,79.40
2017-04-23T06:43:44.493Z,79.50
2017-04-23T06:44:42.947Z,79.40
2017-04-23T06:45:41.426Z,79.90
2017-04-23T06:46:40.605Z,79.60
2017-04-23T06:47:40.171Z,79.10
2017-04-23T06:48:38.609Z,78.60
2017-04-23T06:49:36.999Z,79.20
2017-04-23T06:50:35.482Z,79.70
2017-04-23T06:51:33.954Z,80.00
2017-04-23T06:52:33.119Z,77.50
2017-04-23T06:53:31.534Z,77.30
2017-04-23T06:54:29.950Z,78.20
2017-04-23T06:55:28.402Z,78.30
2017-04-23T06:56:26.798Z,77.90
2017-04-23T06:57:25.322Z,77.30
2017-04-23T06:58:24.508Z,78.70
2017-04-23T06:59:23.775Z,79.00
2017-04-23T07:00:22.239Z,78.60
2017-04-23T07:01:20.727Z,78.90
2017-04-23T07:02:19.309Z,78.50
2017-04-23T07:03:17.748Z,78.80
2017-04-23T07:04:16.183Z,79.00
2017-04-23T07:05:14.625Z,78.20
2017-04-23T07:06:13.740Z,78.60
2017-04-23T07:07:15.947Z,78.20
2017-04-23T07:08:15.138Z,77.20
2017-04-23T07:09:13.906Z,77.70
2017-04-23T07:10:12.327Z,77.20
2017-04-23T07:11:12.357Z,77.60
2017-04-23T07:12:10.797Z,77.80
2017-04-23T07:13:09.221Z,74.90
2017-04-23T07:14:07.633Z,76.20
2017-04-23T07:15:06.837Z,77.00
2017-04-23T07:16:05.272Z,77.10
2017-04-23T07:17:04.437Z,77.20
2017-04-23T07:18:02.867Z,76.70
2017-04-23T07:19:02.135Z,76.80
2017-04-23T07:20:01.251Z,76.20
2017-04-23T07:20:59.728Z,75.40
2017-04-23T07:21:58.168Z,75.80
2017-04-23T07:22:56.563Z,74.80
2017-04-23T07:23:55.050Z,74.90
2017-04-23T07:24:53.555Z,74.60
2017-04-23T07:25:52.040Z,74.70
2017-04-23T07:26:51.233Z,74.30
2017-04-23T07:27:49.780Z,74.10
2017-04-23T07:28:48.146Z,74.80
2017-04-23T07:29:46.578Z,73.90
2017-04-23T07:30:44.955Z,74.00
2017-04-23T07:31:43.529Z,73.70
2017-04-23T07:32:41.973Z,72.20
2017-04-23T07:33:40.466Z,72.10
2017-04-23T07:34:39.654Z,73.20
2017-04-23T07:35:38.102Z,72.90
2017-04-23T07:36:36.505Z,72.10
2017-04-23T07:37:34.933Z,71.20
2017-04-23T07:38:33.355Z,72.90
2017-04-23T07:39:31.802Z,72.70
2017-04-23T07:40:31.295Z,72.60
2017-04-23T07:41:29.711Z,73.20
2017-04-23T07:42:28.870Z,72.30
2017-04-23T07:43:27.289Z,69.90
2017-04-23T07:44:25.738Z,68.40
2017-04-23T07:45:24.915Z,70.30
2017-04-23T07:46:23.345Z,71.60
2017-04-23T07:47:21.729Z,71.00
2017-04-23T07:48:20.124Z,70.20
2017-04-23T07:49:18.512Z,69.20
2017-04-23T07:50:17.714Z,70.60
2017-04-23T07:51:17.137Z,68.50
2017-04-23T07:52:22.758Z,67.70
2017-04-23T07:53:21.596Z,66.90
2017-04-23T07:54:20.784Z,66.70
2017-04-23T07:55:19.208Z,66.20
2017-04-23T07:56:17.684Z,66.80
2017-04-23T07:57:16.084Z,67.00
2017-04-23T07:58:14.541Z,66.40
2017-04-23T07:59:12.992Z,65.60
2017-04-23T08:00:11.414Z,64.10
2017-04-23T08:01:10.619Z,63.80
2017-04-23T08:02:09.151Z,63.40
2017-04-23T08:03:07.570Z,62.10
2017-04-23T08:04:06.005Z,61.40
2017-04-23T08:05:05.237Z,62.00
2017-04-23T08:06:03.679Z,59.40
2017-04-23T08:07:02.862Z,60.30
2017-04-23T08:08:01.267Z,58.30
2017-04-23T08:08:59.684Z,57.60
2017-04-23T08:09:58.098Z,57.40
2017-04-23T08:10:56.525Z,55.00
2017-04-23T08:11:54.974Z,56.60
2017-04-23T08:12:53.415Z,55.40
2017-04-23T08:13:51.896Z,55.40
2017-04-23T08:14:50.447Z,57.00
2017-04-23T08:15:48.879Z,54.70
2017-04-23T08:16:48.151Z,55.40
2017-04-23T08:18:52.061Z,54.60
2017-04-23T08:19:50.508Z,54.70
2017-04-23T08:20:49.055Z,54.40
2017-04-23T08:21:47.696Z,54.10
2017-04-23T08:22:46.182Z,54.60
2017-04-23T08:23:45.443Z,54.70
2017-04-23T08:24:43.821Z,56.00
2017-04-23T08:25:42.959Z,53.90
2017-04-23T08:26:41.355Z,55.30
2017-04-23T08:27:39.786Z,53.80
2017-04-23T08:28:38.251Z,52.90
2017-04-23T08:29:36.718Z,52.30
2017-04-23T08:30:35.187Z,53.10
2017-04-23T08:31:33.595Z,52.50
2017-04-23T08:32:31.996Z,53.80
2017-04-23T08:33:31.522Z,52.50
2017-04-23T08:34:29.942Z,51.70
2017-04-23T08:35:28.365Z,50.90
2017-04-23T08:36:26.793Z,49.40
2017-04-23T08:37:25.189Z,49.60
2017-04-23T08:38:23.696Z,46.10
2017-04-23T08:39:22.182Z,48.90
2017-04-23T08:40:20.626Z,48.30
2017-04-23T08:41:19.026Z,44.80
2017-04-23T08:42:17.477Z,47.50
2017-04-23T08:43:15.863Z,49.00
2017-04-23T08:44:14.292Z,46.50
2017-04-23T08:45:13.116Z,46.10
2017-04-23T08:46:11.506Z,47.90
2017-04-23T08:47:10.666Z,47.30
2017-04-23T08:48:09.071Z,46.80
2017-04-23T08:49:07.531Z,47.90
2017-04-23T08:50:06.669Z,47.20
2017-04-23T08:51:05.136Z,46.80
2017-04-23T08:52:03.674Z,48.50
2017-04-23T08:53:02.150Z,50.20
2017-04-23T08:54:01.322Z,52.00
2017-04-23T08:54:59.773Z,51.40
2017-04-23T08:55:58.263Z,51.10
2017-04-23T08:56:57.464Z,51.10
2017-04-23T08:57:56.686Z,51.80
2017-04-23T08:58:55.128Z,51.00
2017-04-23T08:59:53.554Z,50.50
2017-04-23T09:00:52.319Z,50.60
2017-04-23T09:01:51.531Z,51.50
2017-04-23T09:02:50.218Z,51.50
2017-04-23T09:03:48.658Z,52.10
2017-04-23T09:04:47.130Z,51.00
2017-04-23T09:05:45.602Z,49.70
2017-04-23T09:06:44.060Z,50.70
2017-04-23T09:07:42.526Z,52.40
2017-04-23T09:08:40.977Z,53.40
2017-04-23T09:09:39.388Z,53.10
2017-04-23T09:11:36.845Z,52.50
2017-04-23T09:12:35.275Z,52.10
2017-04-23T09:13:33.698Z,52.00
2017-04-23T09:14:32.162Z,52.40
2017-04-23T09:15:30.576Z,51.10
2017-04-23T09:16:30.005Z,50.70
2017-04-23T09:17:28.466Z,50.70
2017-04-23T09:18:26.911Z,50.30
2017-04-23T09:19:25.392Z,49.30
2017-04-23T09:20:23.824Z,49.80
2017-04-23T09:21:26.865Z,49.50
2017-04-23T09:22:25.440Z,50.00
2017-04-23T09:23:25.070Z,49.70
2017-04-23T09:24:24.489Z,49.20
2017-04-23T09:25:22.934Z,48.60
2017-04-23T09:26:22.135Z,48.90
2017-04-23T09:27:21.298Z,48.50
2017-04-23T09:28:20.105Z,48.00
2017-04-23T09:29:18.546Z,48.50
2017-04-23T09:30:17.049Z,47.30
2017-04-23T09:31:15.526Z,47.30
2017-04-23T09:32:14.046Z,48.30
2017-04-23T09:33:12.487Z,47.30
2017-04-23T09:34:10.863Z,47.20
2017-04-23T09:35:10.034Z,47.20
2017-04-23T09:36:08.455Z,45.30
2017-04-23T09:37:06.929Z,45.30
2017-04-23T09:38:05.362Z,43.30
2017-04-23T09:39:04.836Z,44.30
2017-04-23T09:40:03.677Z,44.90
2017-04-23T09:41:02.087Z,45.10
2017-04-23T09:42:00.591Z,44.30
2017-04-23T09:42:59.061Z,45.80
2017-04-23T09:43:57.471Z,46.30
2017-04-23T09:44:55.914Z,46.90
2017-04-23T09:45:54.322Z,46.70
2017-04-23T09:46:52.774Z,46.10
2017-04-23T09:47:51.513Z,45.60
2017-04-23T09:48:49.973Z,45.80
2017-04-23T09:49:48.459Z,47.70
2017-04-23T09:50:47.706Z,47.70
2017-04-23T09:51:46.482Z,48.50
2017-04-23T09:52:44.919Z,48.70
2017-04-23T09:53:44.237Z,48.50
2017-04-23T09:54:42.717Z,48.60
2017-04-23T09:55:41.131Z,47.70
2017-04-23T09:56:39.643Z,48.50
2017-04-23T09:57:38.059Z,49.10
2017-04-23T09:58:36.457Z,47.60
2017-04-23T09:59:35.428Z,47.70
2017-04-23T10:00:33.872Z,48.40
2017-04-23T10:01:32.354Z,48.10
2017-04-23T10:02:30.816Z,47.70
2017-04-23T10:03:29.277Z,47.60
2017-04-23T10:04:27.752Z,47.20
2017-04-23T10:05:26.200Z,46.30
2017-04-23T10:06:24.634Z,46.10
2017-04-23T10:07:23.043Z,46.00
2017-04-23T10:08:21.518Z,46.00
2017-04-23T10:09:19.975Z,46.20
2017-04-23T10:10:18.399Z,45.80
2017-04-23T10:11:16.803Z,45.10
2017-04-23T10:12:16.018Z,46.00
2017-04-23T10:13:14.438Z,46.60
2017-04-23T10:14:12.908Z,45.70
2017-04-23T10:15:11.482Z,45.80
2017-04-23T10:16:09.914Z,46.00
2017-04-23T10:17:08.373Z,45.80
2017-04-23T10:18:06.910Z,45.70
2017-04-23T10:19:06.097Z,45.30
2017-04-23T10:20:05.302Z,44.60
2017-04-23T10:21:03.956Z,44.60
2017-04-23T10:22:03.167Z,44.70
2017-04-23T10:23:01.646Z,44.50
2017-04-23T10:24:00.085Z,44.50
2017-04-23T10:24:59.293Z,44.70
2017-04-23T10:25:57.755Z,45.80
2017-04-23T10:26:56.997Z,44.40
2017-04-23T10:27:55.500Z,43.80
2017-04-23T10:28:53.933Z,44.30
2017-04-23T10:29:52.445Z,43.20
2017-04-23T10:30:51.628Z,42.70
2017-04-23T10:31:50.851Z,43.00
2017-04-23T10:32:49.365Z,44.10
2017-04-23T10:33:47.864Z,43.30
2017-04-23T10:34:47.057Z,42.40
2017-04-23T10:35:46.255Z,42.10
2017-04-23T10:36:44.705Z,42.80
2017-04-23T10:37:43.902Z,43.40
2017-04-23T10:38:43.176Z,43.10
2017-04-23T10:39:41.615Z,41.40
2017-04-23T10:40:40.044Z,42.00
2017-04-23T10:41:38.498Z,40.00
2017-04-23T10:42:37.719Z,39.50
2017-04-23T10:43:36.175Z,39.90
2017-04-23T10:44:34.643Z,37.10
2017-04-23T10:45:33.096Z,37.40
2017-04-23T10:46:32.218Z,39.50
2017-04-23T10:47:31.332Z,40.60
2017-04-23T10:48:29.725Z,38.90
2017-04-23T10:49:28.125Z,38.30
2017-04-23T10:50:26.577Z,37.60
2017-04-23T10:51:25.736Z,37.70
2017-04-23T10:52:24.122Z,37.60
2017-04-23T10:53:22.638Z,37.50
2017-04-23T10:54:21.419Z,38.30
2017-04-23T10:55:19.827Z,38.60
2017-04-23T10:56:18.255Z,38.50
2017-04-23T10:57:16.657Z,38.50
2017-04-23T10:58:15.108Z,39.40
2017-04-23T10:59:13.587Z,39.40
2017-04-23T11:00:12.048Z,40.70
2017-04-23T11:01:10.513Z,40.60
2017-04-23T11:02:08.924Z,40.90
2017-04-23T11:03:07.334Z,40.90
2017-04-23T11:04:05.772Z,40.80
2017-04-23T11:05:04.946Z,40.80
2017-04-23T11:06:03.638Z,40.00
2017-04-23T11:07:02.811Z,40.40
2017-04-23T11:08:01.239Z,39.90
2017-04-23T11:08:59.894Z,40.50
2017-04-23T11:09:58.358Z,42.00
2017-04-23T11:10:56.796Z,42.40
2017-04-23T11:11:55.178Z,42.00
2017-04-23T11:12:54.375Z,41.60
2017-04-23T11:13:53.863Z,41.50
2017-04-23T11:14:53.024Z,41.60
2017-04-23T11:15:51.435Z,42.30
2017-04-23T11:16:50.631Z,41.50
2017-04-23T11:17:49.061Z,41.30
2017-04-23T11:18:47.512Z,41.00
2017-04-23T11:19:46.146Z,40.50
2017-04-23T11:20:44.617Z,40.60
2017-04-23T11:21:43.017Z,42.00
2017-04-23T11:22:41.530Z,41.00
2017-04-23T11:23:40.682Z,41.10
2017-04-23T11:24:39.133Z,40.90
2017-04-23T11:25:37.571Z,42.20
2017-04-23T11:26:36.798Z,42.20
2017-04-23T11:27:35.226Z,42.00
2017-04-23T11:28:34.431Z,41.40
2017-04-23T11:29:32.910Z,41.40
2017-04-23T11:30:31.378Z,42.50
2017-04-23T11:31:29.853Z,41.90
2017-04-23T11:32:28.293Z,42.00
2017-04-23T11:33:27.499Z,42.30
2017-04-23T11:34:26.012Z,43.50
2017-04-23T11:35:24.453Z,42.80
2017-04-23T11:36:22.917Z,41.60
2017-04-23T11:37:21.391Z,40.40
2017-04-23T11:38:19.860Z,40.60
2017-04-23T11:39:18.350Z,40.20
2017-04-23T11:40:16.829Z,39.80
2017-04-23T11:41:15.310Z,40.50
2017-04-23T11:42:13.707Z,40.00
2017-04-23T11:43:12.148Z,40.80
2017-04-23T11:44:10.564Z,40.90
2017-04-23T11:45:09.803Z,40.80
2017-04-23T11:46:08.239Z,41.90
2017-04-23T11:47:06.676Z,42.20
2017-04-23T11:48:05.132Z,40.20
2017-04-23T11:49:03.697Z,41.80
2017-04-23T11:50:02.147Z,41.20
2017-04-23T11:51:00.712Z,42.00
2017-04-23T11:51:59.243Z,42.00
2017-04-23T11:52:57.664Z,41.40
2017-04-23T11:53:56.136Z,41.70
2017-04-23T11:54:54.688Z,40.90
2017-04-23T11:55:53.184Z,40.80
2017-04-23T11:56:51.665Z,40.10
2017-04-23T11:57:50.104Z,39.50
2017-04-23T11:58:48.547Z,39.80
2017-04-23T11:59:47.780Z,39.60
2017-04-23T12:00:46.233Z,39.40
2017-04-23T12:01:45.069Z,40.80
2017-04-23T12:02:44.246Z,40.70
2017-04-23T12:03:42.696Z,40.20
2017-04-23T12:04:41.943Z,40.10
2017-04-23T12:05:40.391Z,41.10
2017-04-23T12:06:39.561Z,39.40
2017-04-23T12:07:38.047Z,40.80
2017-04-23T12:08:37.225Z,40.80
2017-04-23T12:09:35.595Z,41.80
2017-04-23T12:10:34.831Z,42.90
2017-04-23T12:11:33.255Z,43.50
2017-04-23T12:12:32.469Z,42.50
2017-04-23T12:13:31.005Z,42.10
2017-04-23T12:14:29.450Z,41.40
2017-04-23T12:15:27.986Z,41.10
2017-04-23T12:16:26.370Z,42.60
2017-04-23T12:17:24.780Z,43.10
2017-04-23T12:18:23.169Z,41.90
2017-04-23T12:19:22.347Z,41.90
2017-04-23T12:20:20.731Z,40.90
2017-04-23T12:21:20.078Z,41.60
2017-04-23T12:22:18.486Z,41.40
2017-04-23T12:23:17.639Z,40.90
2017-04-23T12:24:16.140Z,41.10
2017-04-23T12:25:14.616Z,40.70
2017-04-23T12:26:13.825Z,41.20
2017-04-23T12:27:12.284Z,40.80
2017-04-23T12:28:11.449Z,41.90
2017-04-23T12:29:09.895Z,42.50
2017-04-23T12:30:08.366Z,42.30
2017-04-23T12:31:06.847Z,41.90
2017-04-23T12:32:10.369Z,41.40
2017-04-23T12:33:09.561Z,41.70
2017-04-23T12:34:08.704Z,43.20
2017-04-23T12:35:07.148Z,42.20
2017-04-23T12:36:05.703Z,42.00
2017-04-23T12:37:04.199Z,43.50
2017-04-23T12:38:02.659Z,42.30
2017-04-23T12:39:01.095Z,42.10